sensor_id;sensor_type;location;lat;lon;timestamp;P1;durP1;ratioP1;P2;durP2;ratioP2
64959;SDS011;51487;52.266;10.542;2024-01-07T00:00:00;9.60;;;7.03;;
64959;SDS011;51487;52.266;10.542;2024-01-07T00:02:26;9.38;;;7.43;;
64959;SDS011;51487;52.266;10.542;2024-01-07T00:04:51;9.50;;;7.07;;
64959;SDS011;51487;52.266;10.542;2024-01-07T00:07:17;10.40;;;7.15;;
64959;SDS011;51487;52.266;10.542;2024-01-07T00:09:42;9.35;;;7.13;;
64959;SDS011;51487;52.266;10.542;2024-01-07T00:12:08;9.75;;;6.68;;
64959;SDS011;51487;52.266;10.542;2024-01-07T00:14:33;11.15;;;7.65;;
64959;SDS011;51487;52.266;10.542;2024-01-07T00:16:59;10.27;;;6.97;;
64959;SDS011;51487;52.266;10.542;2024-01-07T00:19:24;11.43;;;7.47;;
64959;SDS011;51487;52.266;10.542;2024-01-07T00:21:50;10.10;;;6.95;;
64959;SDS011;51487;52.266;10.542;2024-01-07T00:24:15;8.60;;;6.35;;
64959;SDS011;51487;52.266;10.542;2024-01-07T00:26:41;8.70;;;6.18;;
64959;SDS011;51487;52.266;10.542;2024-01-07T00:29:06;9.05;;;6.40;;
64959;SDS011;51487;52.266;10.542;2024-01-07T00:31:32;11.35;;;7.53;;
64959;SDS011;51487;52.266;10.542;2024-01-07T00:33:57;10.65;;;7.18;;
64959;SDS011;51487;52.266;10.542;2024-01-07T00:36:23;9.95;;;7.28;;
64959;SDS011;51487;52.266;10.542;2024-01-07T00:38:48;8.60;;;6.55;;
64959;SDS011;51487;52.266;10.542;2024-01-07T00:41:14;9.88;;;6.78;;
64959;SDS011;51487;52.266;10.542;2024-01-07T00:43:40;10.63;;;6.93;;
64959;SDS011;51487;52.266;10.542;2024-01-07T00:46:06;9.85;;;6.43;;
64959;SDS011;51487;52.266;10.542;2024-01-07T00:48:31;9.38;;;6.72;;
64959;SDS011;51487;52.266;10.542;2024-01-07T00:50:57;9.57;;;7.20;;
64959;SDS011;51487;52.266;10.542;2024-01-07T00:53:22;10.98;;;7.07;;
64959;SDS011;51487;52.266;10.542;2024-01-07T00:55:48;10.65;;;7.78;;
64959;SDS011;51487;52.266;10.542;2024-01-07T00:58:13;9.23;;;6.18;;
64959;SDS011;51487;52.266;10.542;2024-01-07T01:00:39;13.40;;;7.47;;
64959;SDS011;51487;52.266;10.542;2024-01-07T01:03:04;11.00;;;7.18;;
64959;SDS011;51487;52.266;10.542;2024-01-07T01:05:30;11.38;;;6.60;;
64959;SDS011;51487;52.266;10.542;2024-01-07T01:07:55;9.63;;;6.28;;
64959;SDS011;51487;52.266;10.542;2024-01-07T01:10:21;10.07;;;6.93;;
64959;SDS011;51487;52.266;10.542;2024-01-07T01:12:46;13.15;;;6.70;;
64959;SDS011;51487;52.266;10.542;2024-01-07T01:15:12;9.23;;;5.93;;
64959;SDS011;51487;52.266;10.542;2024-01-07T01:17:37;10.75;;;6.47;;
64959;SDS011;51487;52.266;10.542;2024-01-07T01:20:03;9.73;;;5.43;;
64959;SDS011;51487;52.266;10.542;2024-01-07T01:22:29;7.57;;;4.90;;
64959;SDS011;51487;52.266;10.542;2024-01-07T01:24:55;8.70;;;5.80;;
64959;SDS011;51487;52.266;10.542;2024-01-07T01:27:21;10.45;;;5.78;;
64959;SDS011;51487;52.266;10.542;2024-01-07T01:29:46;7.13;;;5.07;;
64959;SDS011;51487;52.266;10.542;2024-01-07T01:32:12;7.38;;;4.82;;
64959;SDS011;51487;52.266;10.542;2024-01-07T01:34:39;7.57;;;4.70;;
64959;SDS011;51487;52.266;10.542;2024-01-07T01:37:05;10.45;;;5.05;;
64959;SDS011;51487;52.266;10.542;2024-01-07T01:39:33;7.38;;;5.25;;
64959;SDS011;51487;52.266;10.542;2024-01-07T01:41:59;7.75;;;4.65;;
64959;SDS011;51487;52.266;10.542;2024-01-07T01:44:24;6.75;;;5.03;;
64959;SDS011;51487;52.266;10.542;2024-01-07T01:46:52;7.50;;;4.70;;
64959;SDS011;51487;52.266;10.542;2024-01-07T01:49:17;6.00;;;4.65;;
64959;SDS011;51487;52.266;10.542;2024-01-07T01:51:43;7.28;;;5.10;;
64959;SDS011;51487;52.266;10.542;2024-01-07T01:54:09;7.25;;;5.10;;
64959;SDS011;51487;52.266;10.542;2024-01-07T01:56:36;6.90;;;5.13;;
64959;SDS011;51487;52.266;10.542;2024-01-07T01:59:01;6.97;;;4.93;;
64959;SDS011;51487;52.266;10.542;2024-01-07T02:01:27;8.07;;;4.85;;
64959;SDS011;51487;52.266;10.542;2024-01-07T02:03:53;7.53;;;4.80;;
64959;SDS011;51487;52.266;10.542;2024-01-07T02:06:19;8.18;;;5.47;;
64959;SDS011;51487;52.266;10.542;2024-01-07T02:08:46;8.75;;;5.55;;
64959;SDS011;51487;52.266;10.542;2024-01-07T02:11:15;9.07;;;5.28;;
64959;SDS011;51487;52.266;10.542;2024-01-07T02:13:45;8.43;;;5.07;;
64959;SDS011;51487;52.266;10.542;2024-01-07T02:16:11;7.18;;;5.05;;
64959;SDS011;51487;52.266;10.542;2024-01-07T02:18:37;7.03;;;4.78;;
64959;SDS011;51487;52.266;10.542;2024-01-07T02:21:06;6.95;;;4.97;;
64959;SDS011;51487;52.266;10.542;2024-01-07T02:23:33;7.90;;;5.35;;
64959;SDS011;51487;52.266;10.542;2024-01-07T02:25:59;5.95;;;4.80;;
64959;SDS011;51487;52.266;10.542;2024-01-07T02:28:24;8.00;;;5.20;;
64959;SDS011;51487;52.266;10.542;2024-01-07T02:30:50;5.78;;;4.50;;
64959;SDS011;51487;52.266;10.542;2024-01-07T02:33:15;9.88;;;5.25;;
64959;SDS011;51487;52.266;10.542;2024-01-07T02:35:40;6.88;;;4.88;;
64959;SDS011;51487;52.266;10.542;2024-01-07T02:38:06;6.38;;;4.30;;
64959;SDS011;51487;52.266;10.542;2024-01-07T02:40:31;6.43;;;4.72;;
64959;SDS011;51487;52.266;10.542;2024-01-07T02:42:57;5.43;;;4.20;;
64959;SDS011;51487;52.266;10.542;2024-01-07T02:45:23;6.22;;;4.45;;
64959;SDS011;51487;52.266;10.542;2024-01-07T02:47:49;5.68;;;4.60;;
64959;SDS011;51487;52.266;10.542;2024-01-07T02:50:14;6.80;;;4.72;;
64959;SDS011;51487;52.266;10.542;2024-01-07T02:52:41;6.00;;;4.38;;
64959;SDS011;51487;52.266;10.542;2024-01-07T02:55:07;6.80;;;4.53;;
64959;SDS011;51487;52.266;10.542;2024-01-07T02:57:33;7.05;;;4.80;;
64959;SDS011;51487;52.266;10.542;2024-01-07T02:59:59;7.70;;;4.90;;
64959;SDS011;51487;52.266;10.542;2024-01-07T03:02:24;8.27;;;4.55;;
64959;SDS011;51487;52.266;10.542;2024-01-07T03:04:50;6.28;;;4.65;;
64959;SDS011;51487;52.266;10.542;2024-01-07T03:07:15;6.55;;;4.80;;
64959;SDS011;51487;52.266;10.542;2024-01-07T03:09:41;6.30;;;4.22;;
64959;SDS011;51487;52.266;10.542;2024-01-07T03:12:06;9.25;;;4.10;;
64959;SDS011;51487;52.266;10.542;2024-01-07T03:14:32;9.43;;;5.28;;
64959;SDS011;51487;52.266;10.542;2024-01-07T03:16:57;6.28;;;3.97;;
64959;SDS011;51487;52.266;10.542;2024-01-07T03:19:22;7.00;;;4.15;;
64959;SDS011;51487;52.266;10.542;2024-01-07T03:21:50;5.88;;;4.50;;
64959;SDS011;51487;52.266;10.542;2024-01-07T03:24:15;5.72;;;3.80;;
64959;SDS011;51487;52.266;10.542;2024-01-07T03:26:41;9.10;;;4.25;;
64959;SDS011;51487;52.266;10.542;2024-01-07T03:29:06;6.05;;;4.25;;
64959;SDS011;51487;52.266;10.542;2024-01-07T03:31:32;5.07;;;3.80;;
64959;SDS011;51487;52.266;10.542;2024-01-07T03:33:58;4.65;;;3.88;;
64959;SDS011;51487;52.266;10.542;2024-01-07T03:36:23;5.00;;;3.60;;
64959;SDS011;51487;52.266;10.542;2024-01-07T03:38:49;4.93;;;3.42;;
64959;SDS011;51487;52.266;10.542;2024-01-07T03:41:15;3.83;;;2.95;;
64959;SDS011;51487;52.266;10.542;2024-01-07T03:43:48;5.28;;;3.70;;
64959;SDS011;51487;52.266;10.542;2024-01-07T03:46:15;3.72;;;3.08;;
64959;SDS011;51487;52.266;10.542;2024-01-07T03:48:41;4.97;;;3.28;;
64959;SDS011;51487;52.266;10.542;2024-01-07T03:51:08;5.47;;;3.28;;
64959;SDS011;51487;52.266;10.542;2024-01-07T03:53:33;4.70;;;3.20;;
64959;SDS011;51487;52.266;10.542;2024-01-07T03:55:59;4.03;;;2.90;;
64959;SDS011;51487;52.266;10.542;2024-01-07T03:58:24;4.30;;;2.50;;
64959;SDS011;51487;52.266;10.542;2024-01-07T04:00:50;4.00;;;2.92;;
64959;SDS011;51487;52.266;10.542;2024-01-07T04:03:16;4.82;;;3.03;;
64959;SDS011;51487;52.266;10.542;2024-01-07T04:05:41;3.40;;;2.90;;
64959;SDS011;51487;52.266;10.542;2024-01-07T04:08:09;4.13;;;2.67;;
64959;SDS011;51487;52.266;10.542;2024-01-07T04:10:34;4.75;;;2.70;;
64959;SDS011;51487;52.266;10.542;2024-01-07T04:13:00;3.92;;;3.10;;
64959;SDS011;51487;52.266;10.542;2024-01-07T04:15:25;3.83;;;2.83;;
64959;SDS011;51487;52.266;10.542;2024-01-07T04:17:51;5.35;;;2.90;;
64959;SDS011;51487;52.266;10.542;2024-01-07T04:20:16;4.10;;;2.78;;
64959;SDS011;51487;52.266;10.542;2024-01-07T04:22:42;3.72;;;3.10;;
64959;SDS011;51487;52.266;10.542;2024-01-07T04:25:07;4.00;;;2.60;;
64959;SDS011;51487;52.266;10.542;2024-01-07T04:27:33;4.40;;;2.58;;
64959;SDS011;51487;52.266;10.542;2024-01-07T04:30:00;3.17;;;2.60;;
64959;SDS011;51487;52.266;10.542;2024-01-07T04:32:26;3.03;;;2.58;;
64959;SDS011;51487;52.266;10.542;2024-01-07T04:34:52;4.10;;;2.70;;
64959;SDS011;51487;52.266;10.542;2024-01-07T04:37:17;2.75;;;2.38;;
64959;SDS011;51487;52.266;10.542;2024-01-07T04:39:43;2.85;;;2.60;;
64959;SDS011;51487;52.266;10.542;2024-01-07T04:42:08;3.58;;;2.67;;
64959;SDS011;51487;52.266;10.542;2024-01-07T04:44:34;3.28;;;2.97;;
64959;SDS011;51487;52.266;10.542;2024-01-07T04:46:59;3.35;;;2.72;;
64959;SDS011;51487;52.266;10.542;2024-01-07T04:49:25;3.28;;;2.60;;
64959;SDS011;51487;52.266;10.542;2024-01-07T04:51:51;3.67;;;2.70;;
64959;SDS011;51487;52.266;10.542;2024-01-07T04:54:16;4.28;;;2.63;;
64959;SDS011;51487;52.266;10.542;2024-01-07T04:56:43;4.90;;;2.53;;
64959;SDS011;51487;52.266;10.542;2024-01-07T04:59:09;5.03;;;2.90;;
64959;SDS011;51487;52.266;10.542;2024-01-07T05:01:34;3.80;;;2.67;;
64959;SDS011;51487;52.266;10.542;2024-01-07T05:04:00;3.17;;;2.70;;
64959;SDS011;51487;52.266;10.542;2024-01-07T05:06:26;3.88;;;2.72;;
64959;SDS011;51487;52.266;10.542;2024-01-07T05:08:52;3.38;;;2.50;;
64959;SDS011;51487;52.266;10.542;2024-01-07T05:11:17;4.18;;;3.03;;
64959;SDS011;51487;52.266;10.542;2024-01-07T05:13:43;4.18;;;2.63;;
64959;SDS011;51487;52.266;10.542;2024-01-07T05:16:08;4.25;;;2.80;;
64959;SDS011;51487;52.266;10.542;2024-01-07T05:18:34;4.35;;;2.92;;
64959;SDS011;51487;52.266;10.542;2024-01-07T05:20:59;3.78;;;2.80;;
64959;SDS011;51487;52.266;10.542;2024-01-07T05:23:25;3.28;;;2.78;;
64959;SDS011;51487;52.266;10.542;2024-01-07T05:25:50;4.30;;;3.22;;
64959;SDS011;51487;52.266;10.542;2024-01-07T05:28:16;4.18;;;3.15;;
64959;SDS011;51487;52.266;10.542;2024-01-07T05:30:45;4.13;;;3.03;;
64959;SDS011;51487;52.266;10.542;2024-01-07T05:33:10;5.15;;;3.38;;
64959;SDS011;51487;52.266;10.542;2024-01-07T05:35:36;4.00;;;2.95;;
64959;SDS011;51487;52.266;10.542;2024-01-07T05:38:01;4.25;;;3.00;;
64959;SDS011;51487;52.266;10.542;2024-01-07T05:40:27;5.95;;;3.28;;
64959;SDS011;51487;52.266;10.542;2024-01-07T05:42:52;4.55;;;3.33;;
64959;SDS011;51487;52.266;10.542;2024-01-07T05:45:18;6.80;;;3.28;;
64959;SDS011;51487;52.266;10.542;2024-01-07T05:47:43;5.13;;;3.53;;
64959;SDS011;51487;52.266;10.542;2024-01-07T05:50:09;4.35;;;2.88;;
64959;SDS011;51487;52.266;10.542;2024-01-07T05:52:35;5.68;;;3.60;;
64959;SDS011;51487;52.266;10.542;2024-01-07T05:55:01;4.35;;;3.50;;
64959;SDS011;51487;52.266;10.542;2024-01-07T05:57:26;3.65;;;2.95;;
64959;SDS011;51487;52.266;10.542;2024-01-07T05:59:52;3.85;;;3.10;;
64959;SDS011;51487;52.266;10.542;2024-01-07T06:02:17;3.83;;;2.80;;
64959;SDS011;51487;52.266;10.542;2024-01-07T06:04:43;4.20;;;3.30;;
64959;SDS011;51487;52.266;10.542;2024-01-07T06:07:09;4.82;;;3.72;;
64959;SDS011;51487;52.266;10.542;2024-01-07T06:09:34;4.20;;;3.30;;
64959;SDS011;51487;52.266;10.542;2024-01-07T06:12:00;3.10;;;2.80;;
64959;SDS011;51487;52.266;10.542;2024-01-07T06:14:26;3.53;;;2.75;;
64959;SDS011;51487;52.266;10.542;2024-01-07T06:16:52;4.65;;;3.30;;
64959;SDS011;51487;52.266;10.542;2024-01-07T06:19:17;3.75;;;3.28;;
64959;SDS011;51487;52.266;10.542;2024-01-07T06:21:43;5.15;;;3.58;;
64959;SDS011;51487;52.266;10.542;2024-01-07T06:24:10;4.68;;;3.67;;
64959;SDS011;51487;52.266;10.542;2024-01-07T06:26:36;5.05;;;3.13;;
64959;SDS011;51487;52.266;10.542;2024-01-07T06:29:01;3.20;;;2.90;;
64959;SDS011;51487;52.266;10.542;2024-01-07T06:31:27;4.10;;;3.40;;
64959;SDS011;51487;52.266;10.542;2024-01-07T06:33:52;4.95;;;3.30;;
64959;SDS011;51487;52.266;10.542;2024-01-07T06:36:20;4.47;;;3.58;;
64959;SDS011;51487;52.266;10.542;2024-01-07T06:38:47;3.65;;;2.92;;
64959;SDS011;51487;52.266;10.542;2024-01-07T06:41:13;3.70;;;3.30;;
64959;SDS011;51487;52.266;10.542;2024-01-07T06:43:39;4.85;;;3.35;;
64959;SDS011;51487;52.266;10.542;2024-01-07T06:46:05;4.57;;;2.90;;
64959;SDS011;51487;52.266;10.542;2024-01-07T06:48:30;5.43;;;3.67;;
64959;SDS011;51487;52.266;10.542;2024-01-07T06:50:57;6.43;;;3.83;;
64959;SDS011;51487;52.266;10.542;2024-01-07T06:53:23;4.45;;;3.42;;
64959;SDS011;51487;52.266;10.542;2024-01-07T06:55:48;5.90;;;3.63;;
64959;SDS011;51487;52.266;10.542;2024-01-07T06:58:14;5.28;;;3.33;;
64959;SDS011;51487;52.266;10.542;2024-01-07T07:00:39;5.47;;;3.63;;
64959;SDS011;51487;52.266;10.542;2024-01-07T07:03:05;5.82;;;3.47;;
64959;SDS011;51487;52.266;10.542;2024-01-07T07:05:31;5.90;;;3.22;;
64959;SDS011;51487;52.266;10.542;2024-01-07T07:07:57;5.82;;;3.10;;
64959;SDS011;51487;52.266;10.542;2024-01-07T07:10:23;3.92;;;3.35;;
64959;SDS011;51487;52.266;10.542;2024-01-07T07:12:48;7.00;;;4.10;;
64959;SDS011;51487;52.266;10.542;2024-01-07T07:15:15;3.72;;;3.10;;
64959;SDS011;51487;52.266;10.542;2024-01-07T07:17:41;6.28;;;3.63;;
64959;SDS011;51487;52.266;10.542;2024-01-07T07:20:07;4.90;;;3.42;;
64959;SDS011;51487;52.266;10.542;2024-01-07T07:22:33;6.00;;;3.55;;
64959;SDS011;51487;52.266;10.542;2024-01-07T07:24:59;8.43;;;3.47;;
64959;SDS011;51487;52.266;10.542;2024-01-07T07:27:25;4.55;;;2.92;;
64959;SDS011;51487;52.266;10.542;2024-01-07T07:29:50;5.43;;;3.30;;
64959;SDS011;51487;52.266;10.542;2024-01-07T07:32:16;4.70;;;3.45;;
64959;SDS011;51487;52.266;10.542;2024-01-07T07:34:41;5.05;;;3.85;;
64959;SDS011;51487;52.266;10.542;2024-01-07T07:37:06;4.50;;;3.13;;
64959;SDS011;51487;52.266;10.542;2024-01-07T07:39:32;4.35;;;3.30;;
64959;SDS011;51487;52.266;10.542;2024-01-07T07:41:57;4.95;;;3.05;;
64959;SDS011;51487;52.266;10.542;2024-01-07T07:44:23;3.72;;;3.15;;
64959;SDS011;51487;52.266;10.542;2024-01-07T07:46:48;5.57;;;3.40;;
64959;SDS011;51487;52.266;10.542;2024-01-07T07:49:14;6.07;;;3.45;;
64959;SDS011;51487;52.266;10.542;2024-01-07T07:51:40;5.32;;;3.10;;
64959;SDS011;51487;52.266;10.542;2024-01-07T07:54:06;3.97;;;3.20;;
64959;SDS011;51487;52.266;10.542;2024-01-07T07:56:32;4.25;;;3.50;;
64959;SDS011;51487;52.266;10.542;2024-01-07T07:58:57;5.18;;;3.53;;
64959;SDS011;51487;52.266;10.542;2024-01-07T08:01:23;3.38;;;3.08;;
64959;SDS011;51487;52.266;10.542;2024-01-07T08:03:49;4.47;;;3.30;;
64959;SDS011;51487;52.266;10.542;2024-01-07T08:06:14;4.90;;;3.20;;
64959;SDS011;51487;52.266;10.542;2024-01-07T08:08:40;5.72;;;3.20;;
64959;SDS011;51487;52.266;10.542;2024-01-07T08:11:05;3.60;;;3.30;;
64959;SDS011;51487;52.266;10.542;2024-01-07T08:13:34;7.18;;;3.30;;
64959;SDS011;51487;52.266;10.542;2024-01-07T08:16:02;6.22;;;3.63;;
64959;SDS011;51487;52.266;10.542;2024-01-07T08:18:29;5.15;;;3.03;;
64959;SDS011;51487;52.266;10.542;2024-01-07T08:20:54;3.60;;;3.15;;
64959;SDS011;51487;52.266;10.542;2024-01-07T08:23:20;3.53;;;3.22;;
64959;SDS011;51487;52.266;10.542;2024-01-07T08:25:46;5.13;;;3.58;;
64959;SDS011;51487;52.266;10.542;2024-01-07T08:28:11;4.15;;;3.10;;
64959;SDS011;51487;52.266;10.542;2024-01-07T08:30:37;6.25;;;3.25;;
64959;SDS011;51487;52.266;10.542;2024-01-07T08:33:02;3.92;;;3.30;;
64959;SDS011;51487;52.266;10.542;2024-01-07T08:35:28;4.45;;;3.30;;
64959;SDS011;51487;52.266;10.542;2024-01-07T08:37:53;4.70;;;3.58;;
64959;SDS011;51487;52.266;10.542;2024-01-07T08:40:19;5.60;;;3.20;;
64959;SDS011;51487;52.266;10.542;2024-01-07T08:42:44;3.80;;;3.10;;
64959;SDS011;51487;52.266;10.542;2024-01-07T08:45:10;4.93;;;3.53;;
64959;SDS011;51487;52.266;10.542;2024-01-07T08:47:36;3.92;;;3.40;;
64959;SDS011;51487;52.266;10.542;2024-01-07T08:50:02;4.90;;;3.38;;
64959;SDS011;51487;52.266;10.542;2024-01-07T08:52:28;5.35;;;3.55;;
64959;SDS011;51487;52.266;10.542;2024-01-07T08:54:54;5.70;;;3.65;;
64959;SDS011;51487;52.266;10.542;2024-01-07T08:57:20;4.45;;;3.63;;
64959;SDS011;51487;52.266;10.542;2024-01-07T08:59:45;4.43;;;3.15;;
64959;SDS011;51487;52.266;10.542;2024-01-07T09:02:11;6.00;;;4.28;;
64959;SDS011;51487;52.266;10.542;2024-01-07T09:04:37;5.30;;;3.50;;
64959;SDS011;51487;52.266;10.542;2024-01-07T09:07:03;5.03;;;4.05;;
64959;SDS011;51487;52.266;10.542;2024-01-07T09:09:28;6.00;;;3.83;;
64959;SDS011;51487;52.266;10.542;2024-01-07T09:11:54;8.05;;;4.15;;
64959;SDS011;51487;52.266;10.542;2024-01-07T09:14:21;6.03;;;3.90;;
64959;SDS011;51487;52.266;10.542;2024-01-07T09:16:47;6.63;;;3.72;;
64959;SDS011;51487;52.266;10.542;2024-01-07T09:19:13;5.32;;;3.80;;
64959;SDS011;51487;52.266;10.542;2024-01-07T09:21:38;5.88;;;4.25;;
64959;SDS011;51487;52.266;10.542;2024-01-07T09:24:04;5.65;;;3.80;;
64959;SDS011;51487;52.266;10.542;2024-01-07T09:26:30;6.53;;;3.75;;
64959;SDS011;51487;52.266;10.542;2024-01-07T09:28:56;5.05;;;3.70;;
64959;SDS011;51487;52.266;10.542;2024-01-07T09:31:22;5.95;;;4.00;;
64959;SDS011;51487;52.266;10.542;2024-01-07T09:33:47;5.20;;;3.88;;
64959;SDS011;51487;52.266;10.542;2024-01-07T09:36:13;6.07;;;4.00;;
64959;SDS011;51487;52.266;10.542;2024-01-07T09:38:38;5.55;;;3.58;;
64959;SDS011;51487;52.266;10.542;2024-01-07T09:41:05;4.93;;;3.58;;
64959;SDS011;51487;52.266;10.542;2024-01-07T09:43:30;5.00;;;3.60;;
64959;SDS011;51487;52.266;10.542;2024-01-07T09:45:56;3.50;;;3.20;;
64959;SDS011;51487;52.266;10.542;2024-01-07T09:48:23;4.93;;;3.72;;
64959;SDS011;51487;52.266;10.542;2024-01-07T09:50:49;8.25;;;4.50;;
64959;SDS011;51487;52.266;10.542;2024-01-07T09:53:17;5.68;;;3.40;;
64959;SDS011;51487;52.266;10.542;2024-01-07T09:58:45;4.18;;;3.33;;
64959;SDS011;51487;52.266;10.542;2024-01-07T10:01:14;3.85;;;3.47;;
64959;SDS011;51487;52.266;10.542;2024-01-07T10:03:44;4.35;;;3.33;;
64959;SDS011;51487;52.266;10.542;2024-01-07T10:06:11;4.90;;;3.75;;
64959;SDS011;51487;52.266;10.542;2024-01-07T10:08:37;4.65;;;3.63;;
64959;SDS011;51487;52.266;10.542;2024-01-07T10:11:04;11.70;;;4.63;;
64959;SDS011;51487;52.266;10.542;2024-01-07T10:13:30;3.92;;;3.40;;
64959;SDS011;51487;52.266;10.542;2024-01-07T10:15:57;6.38;;;3.10;;
64959;SDS011;51487;52.266;10.542;2024-01-07T10:18:22;4.32;;;2.83;;
64959;SDS011;51487;52.266;10.542;2024-01-07T10:20:48;8.27;;;5.05;;
64959;SDS011;51487;52.266;10.542;2024-01-07T10:23:20;5.95;;;3.28;;
64959;SDS011;51487;52.266;10.542;2024-01-07T10:25:45;7.63;;;3.97;;
64959;SDS011;51487;52.266;10.542;2024-01-07T10:28:12;5.85;;;2.90;;
64959;SDS011;51487;52.266;10.542;2024-01-07T10:30:39;4.03;;;3.03;;
64959;SDS011;51487;52.266;10.542;2024-01-07T10:33:05;3.83;;;3.42;;
64959;SDS011;51487;52.266;10.542;2024-01-07T10:35:33;4.15;;;3.63;;
64959;SDS011;51487;52.266;10.542;2024-01-07T10:38:02;3.38;;;2.78;;
64959;SDS011;51487;52.266;10.542;2024-01-07T10:40:29;4.28;;;3.25;;
64959;SDS011;51487;52.266;10.542;2024-01-07T10:42:57;3.55;;;2.70;;
64959;SDS011;51487;52.266;10.542;2024-01-07T10:45:23;4.32;;;3.35;;
64959;SDS011;51487;52.266;10.542;2024-01-07T10:47:49;5.18;;;3.25;;
64959;SDS011;51487;52.266;10.542;2024-01-07T10:50:21;5.28;;;3.38;;
64959;SDS011;51487;52.266;10.542;2024-01-07T10:52:50;4.80;;;3.30;;
64959;SDS011;51487;52.266;10.542;2024-01-07T10:55:23;4.15;;;3.25;;
64959;SDS011;51487;52.266;10.542;2024-01-07T10:57:54;4.88;;;3.33;;
64959;SDS011;51487;52.266;10.542;2024-01-07T11:00:22;4.10;;;3.30;;
64959;SDS011;51487;52.266;10.542;2024-01-07T11:02:51;4.22;;;3.00;;
64959;SDS011;51487;52.266;10.542;2024-01-07T11:08:22;4.53;;;2.95;;
64959;SDS011;51487;52.266;10.542;2024-01-07T11:11:38;5.00;;;4.05;;
64959;SDS011;51487;52.266;10.542;2024-01-07T11:17:09;5.85;;;3.05;;
64959;SDS011;51487;52.266;10.542;2024-01-07T11:19:36;4.13;;;3.08;;
64959;SDS011;51487;52.266;10.542;2024-01-07T11:24:48;3.97;;;2.85;;
64959;SDS011;51487;52.266;10.542;2024-01-07T11:27:13;4.78;;;2.90;;
64959;SDS011;51487;52.266;10.542;2024-01-07T11:29:41;5.80;;;3.00;;
64959;SDS011;51487;52.266;10.542;2024-01-07T11:32:06;4.07;;;3.15;;
64959;SDS011;51487;52.266;10.542;2024-01-07T11:34:39;4.72;;;3.40;;
64959;SDS011;51487;52.266;10.542;2024-01-07T11:37:14;3.35;;;2.80;;
64959;SDS011;51487;52.266;10.542;2024-01-07T11:39:44;3.20;;;2.90;;
64959;SDS011;51487;52.266;10.542;2024-01-07T11:42:10;5.03;;;2.97;;
64959;SDS011;51487;52.266;10.542;2024-01-07T11:44:37;4.35;;;2.97;;
64959;SDS011;51487;52.266;10.542;2024-01-07T11:47:09;5.03;;;2.75;;
64959;SDS011;51487;52.266;10.542;2024-01-07T11:49:35;5.32;;;3.30;;
64959;SDS011;51487;52.266;10.542;2024-01-07T11:52:00;4.10;;;3.00;;
64959;SDS011;51487;52.266;10.542;2024-01-07T11:54:27;8.15;;;4.13;;
64959;SDS011;51487;52.266;10.542;2024-01-07T11:56:53;6.35;;;2.95;;
64959;SDS011;51487;52.266;10.542;2024-01-07T11:59:19;4.65;;;3.20;;
64959;SDS011;51487;52.266;10.542;2024-01-07T12:01:45;5.50;;;3.40;;
64959;SDS011;51487;52.266;10.542;2024-01-07T12:04:10;5.28;;;3.30;;
64959;SDS011;51487;52.266;10.542;2024-01-07T12:06:37;4.25;;;3.10;;
64959;SDS011;51487;52.266;10.542;2024-01-07T12:09:04;5.80;;;3.10;;
64959;SDS011;51487;52.266;10.542;2024-01-07T12:11:30;4.50;;;3.50;;
64959;SDS011;51487;52.266;10.542;2024-01-07T12:13:56;9.38;;;5.00;;
64959;SDS011;51487;52.266;10.542;2024-01-07T12:16:22;5.38;;;3.67;;
64959;SDS011;51487;52.266;10.542;2024-01-07T12:18:48;4.50;;;3.13;;
64959;SDS011;51487;52.266;10.542;2024-01-07T12:21:18;3.83;;;3.22;;
64959;SDS011;51487;52.266;10.542;2024-01-07T12:23:48;6.85;;;3.92;;
64959;SDS011;51487;52.266;10.542;2024-01-07T12:26:19;3.40;;;2.80;;
64959;SDS011;51487;52.266;10.542;2024-01-07T12:28:45;4.70;;;3.80;;
64959;SDS011;51487;52.266;10.542;2024-01-07T12:31:32;4.93;;;3.33;;
64959;SDS011;51487;52.266;10.542;2024-01-07T12:33:58;6.45;;;4.53;;
64959;SDS011;51487;52.266;10.542;2024-01-07T12:36:25;8.32;;;4.30;;
64959;SDS011;51487;52.266;10.542;2024-01-07T12:38:51;4.43;;;3.00;;
64959;SDS011;51487;52.266;10.542;2024-01-07T12:41:21;5.50;;;3.70;;
64959;SDS011;51487;52.266;10.542;2024-01-07T12:43:48;6.75;;;3.13;;
64959;SDS011;51487;52.266;10.542;2024-01-07T12:46:14;4.05;;;3.30;;
64959;SDS011;51487;52.266;10.542;2024-01-07T12:48:39;6.00;;;3.33;;
64959;SDS011;51487;52.266;10.542;2024-01-07T12:51:05;4.43;;;3.50;;
64959;SDS011;51487;52.266;10.542;2024-01-07T12:53:30;4.25;;;3.33;;
64959;SDS011;51487;52.266;10.542;2024-01-07T12:55:56;5.05;;;3.47;;
64959;SDS011;51487;52.266;10.542;2024-01-07T12:58:21;5.50;;;3.88;;
64959;SDS011;51487;52.266;10.542;2024-01-07T13:00:47;3.83;;;3.03;;
64959;SDS011;51487;52.266;10.542;2024-01-07T13:03:12;4.43;;;3.17;;
64959;SDS011;51487;52.266;10.542;2024-01-07T13:05:42;3.55;;;3.20;;
64959;SDS011;51487;52.266;10.542;2024-01-07T13:08:14;4.47;;;3.47;;
64959;SDS011;51487;52.266;10.542;2024-01-07T13:10:40;6.53;;;3.70;;
64959;SDS011;51487;52.266;10.542;2024-01-07T13:13:06;8.35;;;4.18;;
64959;SDS011;51487;52.266;10.542;2024-01-07T13:15:32;4.05;;;3.55;;
64959;SDS011;51487;52.266;10.542;2024-01-07T13:17:57;6.28;;;4.22;;
64959;SDS011;51487;52.266;10.542;2024-01-07T13:20:23;7.18;;;4.70;;
64959;SDS011;51487;52.266;10.542;2024-01-07T13:22:49;7.65;;;5.07;;
64959;SDS011;51487;52.266;10.542;2024-01-07T13:25:15;7.32;;;4.70;;
64959;SDS011;51487;52.266;10.542;2024-01-07T13:27:40;5.82;;;4.68;;
64959;SDS011;51487;52.266;10.542;2024-01-07T13:30:07;6.65;;;4.80;;
64959;SDS011;51487;52.266;10.542;2024-01-07T13:32:34;7.22;;;5.00;;
64959;SDS011;51487;52.266;10.542;2024-01-07T13:35:01;8.93;;;4.95;;
64959;SDS011;51487;52.266;10.542;2024-01-07T13:37:29;6.00;;;4.63;;
64959;SDS011;51487;52.266;10.542;2024-01-07T13:39:55;5.57;;;4.30;;
64959;SDS011;51487;52.266;10.542;2024-01-07T13:42:21;5.88;;;4.10;;
64959;SDS011;51487;52.266;10.542;2024-01-07T13:44:47;5.78;;;4.20;;
64959;SDS011;51487;52.266;10.542;2024-01-07T13:47:13;7.30;;;5.30;;
64959;SDS011;51487;52.266;10.542;2024-01-07T13:49:39;6.57;;;3.85;;
64959;SDS011;51487;52.266;10.542;2024-01-07T13:52:06;4.30;;;3.35;;
64959;SDS011;51487;52.266;10.542;2024-01-07T13:54:32;4.68;;;3.55;;
64959;SDS011;51487;52.266;10.542;2024-01-07T13:56:57;5.53;;;3.85;;
64959;SDS011;51487;52.266;10.542;2024-01-07T13:59:23;6.50;;;4.40;;
64959;SDS011;51487;52.266;10.542;2024-01-07T14:01:48;5.53;;;3.97;;
64959;SDS011;51487;52.266;10.542;2024-01-07T14:04:14;4.35;;;3.35;;
64959;SDS011;51487;52.266;10.542;2024-01-07T14:06:40;4.70;;;3.33;;
64959;SDS011;51487;52.266;10.542;2024-01-07T14:09:05;6.32;;;3.50;;
64959;SDS011;51487;52.266;10.542;2024-01-07T14:11:33;3.45;;;3.15;;
64959;SDS011;51487;52.266;10.542;2024-01-07T14:13:59;3.70;;;2.90;;
64959;SDS011;51487;52.266;10.542;2024-01-07T14:16:26;6.68;;;3.53;;
64959;SDS011;51487;52.266;10.542;2024-01-07T14:18:51;5.93;;;3.85;;
64959;SDS011;51487;52.266;10.542;2024-01-07T14:21:17;4.13;;;2.90;;
64959;SDS011;51487;52.266;10.542;2024-01-07T14:23:42;4.82;;;3.30;;
64959;SDS011;51487;52.266;10.542;2024-01-07T14:26:08;5.60;;;4.07;;
64959;SDS011;51487;52.266;10.542;2024-01-07T14:28:34;7.57;;;4.30;;
64959;SDS011;51487;52.266;10.542;2024-01-07T14:31:00;8.88;;;6.47;;
64959;SDS011;51487;52.266;10.542;2024-01-07T14:33:28;5.88;;;4.25;;
64959;SDS011;51487;52.266;10.542;2024-01-07T14:35:54;3.55;;;3.03;;
64959;SDS011;51487;52.266;10.542;2024-01-07T14:38:20;4.43;;;3.28;;